createdAt,value
2023-03-06T00:00:29.951Z,62.10
2023-03-06T00:03:20.933Z,59.80
2023-03-06T00:06:10.544Z,61.60
2023-03-06T00:08:59.449Z,61.40
2023-03-06T00:11:48.515Z,60.90
2023-03-06T00:14:37.434Z,61.00
2023-03-06T00:17:26.710Z,60.60
2023-03-06T00:20:18.241Z,60.80
2023-03-06T00:23:07.128Z,61.50
2023-03-06T00:25:56.262Z,62.30
2023-03-06T00:28:45.060Z,62.90
2023-03-06T00:31:34.175Z,63.40
2023-03-06T00:34:23.076Z,64.10
2023-03-06T00:37:13.604Z,66.60
2023-03-06T00:40:02.588Z,68.40
2023-03-06T00:42:51.530Z,69.80
2023-03-06T00:45:40.671Z,71.70
2023-03-06T00:48:29.508Z,72.70
2023-03-06T00:51:19.832Z,74.60
2023-03-06T00:54:10.256Z,76.00
2023-03-06T00:56:59.089Z,77.70
2023-03-06T00:59:47.905Z,79.40
2023-03-06T01:02:36.540Z,79.70
2023-03-06T01:05:25.220Z,80.70
2023-03-06T01:08:13.939Z,81.20
2023-03-06T01:11:03.958Z,82.50
2023-03-06T01:13:52.779Z,83.30
2023-03-06T01:16:41.559Z,83.40
2023-03-06T01:19:30.184Z,83.30
2023-03-06T01:22:18.935Z,83.60
2023-03-06T01:25:08.520Z,84.30
2023-03-06T01:27:58.705Z,84.40
2023-03-06T01:30:47.508Z,86.20
2023-03-06T01:33:37.008Z,86.40
2023-03-06T01:36:26.143Z,86.90
2023-03-06T01:39:15.202Z,87.30
2023-03-06T01:42:04.117Z,87.30
2023-03-06T01:45:07.473Z,88.20
2023-03-06T01:47:56.126Z,89.50
2023-03-06T01:50:45.427Z,90.20
2023-03-06T01:53:34.557Z,91.10
2023-03-06T01:56:24.223Z,92.30
2023-03-06T01:59:13.298Z,92.30
2023-03-06T02:02:05.293Z,92.60
2023-03-06T02:04:54.310Z,92.90
2023-03-06T02:07:43.708Z,92.30
2023-03-06T02:10:32.781Z,93.40
2023-03-06T02:13:21.497Z,93.70
2023-03-06T02:16:12.253Z,93.80
2023-03-06T02:19:03.590Z,93.70
2023-03-06T02:21:52.541Z,93.10
2023-03-06T02:24:49.212Z,92.80
2023-03-06T02:27:39.432Z,92.70
2023-03-06T02:30:29.040Z,93.30
2023-03-06T02:33:20.032Z,92.90
2023-03-06T02:36:15.332Z,93.40
2023-03-06T02:39:04.994Z,94.30
2023-03-06T02:41:53.769Z,95.00
2023-03-06T02:44:44.387Z,95.50
2023-03-06T02:47:33.211Z,95.50
2023-03-06T02:50:21.991Z,95.40
2023-03-06T02:53:12.159Z,96.00
2023-03-06T02:56:01.129Z,95.00
2023-03-06T02:58:49.969Z,94.90
2023-03-06T03:01:40.401Z,95.60
2023-03-06T03:04:29.154Z,95.90
2023-03-06T03:07:17.763Z,95.10
2023-03-06T03:10:07.376Z,95.50
2023-03-06T03:12:56.186Z,95.70
2023-03-06T03:15:45.301Z,96.20
2023-03-06T03:18:35.682Z,96.80
2023-03-06T03:21:24.298Z,96.60
2023-03-06T03:24:13.076Z,96.70
2023-03-06T03:27:02.053Z,96.60
2023-03-06T03:29:50.766Z,96.30
2023-03-06T03:32:39.632Z,96.50
2023-03-06T03:35:29.901Z,96.70
2023-03-06T03:38:18.752Z,96.40
2023-03-06T03:41:07.842Z,96.10
2023-03-06T03:43:56.493Z,95.90
2023-03-06T03:46:45.312Z,95.70
2023-03-06T03:49:34.104Z,95.90
2023-03-06T03:52:24.248Z,95.50
2023-03-06T03:55:13.354Z,95.60
2023-03-06T03:58:01.998Z,95.10
2023-03-06T04:00:50.623Z,94.90
2023-03-06T04:03:39.267Z,94.70
2023-03-06T04:06:27.944Z,94.60
2023-03-06T04:09:18.089Z,93.50
2023-03-06T04:12:07.574Z,94.40
2023-03-06T04:14:56.181Z,93.80
2023-03-06T04:17:44.710Z,93.10
2023-03-06T04:20:33.385Z,92.50
2023-03-06T04:23:22.987Z,92.50
2023-03-06T04:26:13.091Z,91.90
2023-03-06T04:29:01.760Z,91.90
2023-03-06T04:31:50.422Z,91.60
2023-03-06T04:34:39.106Z,91.20
2023-03-06T04:37:28.234Z,91.50
2023-03-06T04:40:20.473Z,91.10
2023-03-06T04:43:10.677Z,91.20
2023-03-06T04:45:59.868Z,90.70
2023-03-06T04:48:48.744Z,90.60
2023-03-06T04:51:37.930Z,90.50
2023-03-06T04:54:26.605Z,90.00
2023-03-06T04:57:16.136Z,89.80
2023-03-06T05:00:10.204Z,90.60
2023-03-06T05:03:00.242Z,90.70
2023-03-06T05:05:48.951Z,90.60
2023-03-06T05:08:37.693Z,91.30
2023-03-06T05:11:26.398Z,91.20
2023-03-06T05:14:15.114Z,91.20
2023-03-06T05:17:05.166Z,91.10
2023-03-06T05:19:53.984Z,91.00
2023-03-06T05:22:43.275Z,90.40
2023-03-06T05:25:31.917Z,91.00
2023-03-06T05:28:20.738Z,90.60
2023-03-06T05:31:09.687Z,89.90
2023-03-06T05:34:00.774Z,90.40
2023-03-06T05:36:49.424Z,91.00
2023-03-06T05:39:38.038Z,91.10
2023-03-06T05:42:28.690Z,91.80
2023-03-06T05:45:17.640Z,92.30
2023-03-06T05:48:06.713Z,92.90
2023-03-06T05:50:58.361Z,93.60
2023-03-06T05:53:46.926Z,94.10
2023-03-06T05:56:35.615Z,94.70
2023-03-06T05:59:28.079Z,95.00
2023-03-06T06:02:16.859Z,95.20
2023-03-06T06:05:06.171Z,95.40
2023-03-06T06:07:56.285Z,96.10
2023-03-06T06:10:45.060Z,96.30
2023-03-06T06:13:33.854Z,97.20
2023-03-06T06:16:22.562Z,97.00
2023-03-06T06:19:15.572Z,97.10
2023-03-06T06:22:04.456Z,97.80
2023-03-06T06:24:54.538Z,97.60
2023-03-06T06:27:43.232Z,97.40
2023-03-06T06:30:32.154Z,97.30
2023-03-06T06:33:20.783Z,97.30
2023-03-06T06:36:17.261Z,97.80
2023-03-06T06:39:06.662Z,97.90
2023-03-06T06:42:20.036Z,98.70
2023-03-06T06:45:06.902Z,98.80
2023-03-06T06:47:57.764Z,99.70
2023-03-06T06:50:46.789Z,99.90
2023-03-06T06:53:39.483Z,99.90
2023-03-06T06:56:45.706Z,99.90
2023-03-06T06:59:44.176Z,99.90
2023-03-06T07:06:21.935Z,99.90
2023-03-06T07:09:33.044Z,99.90
2023-03-06T07:36:04.496Z,99.90
2023-03-06T07:39:10.460Z,99.90
2023-03-06T07:42:16.754Z,99.90
2023-03-06T07:49:16.867Z,99.90
2023-03-06T07:52:10.273Z,99.90
2023-03-06T07:58:23.609Z,97.40
2023-03-06T08:01:31.594Z,96.20
2023-03-06T08:24:41.960Z,98.30
2023-03-06T08:27:43.630Z,98.30
2023-03-06T08:30:32.258Z,96.90
2023-03-06T08:33:20.920Z,97.60
2023-03-06T08:36:10.512Z,98.00
2023-03-06T08:39:00.107Z,97.60
2023-03-06T08:41:48.759Z,97.70
2023-03-06T08:44:40.673Z,96.80
2023-03-06T08:48:09.884Z,95.40
2023-03-06T08:52:06.375Z,95.90
2023-03-06T08:59:13.168Z,94.20
2023-03-06T09:38:57.903Z,81.00
2023-03-06T09:42:08.580Z,77.10
2023-03-06T09:45:00.597Z,77.60
2023-03-06T09:48:12.159Z,71.80
2023-03-06T09:56:01.515Z,66.60
2023-03-06T10:07:45.117Z,58.20
2023-03-06T10:51:35.139Z,30.00
2023-03-06T11:27:55.057Z,26.60
2023-03-06T13:39:00.933Z,17.40
2023-03-06T13:45:56.561Z,14.60
2023-03-06T13:48:51.963Z,15.70
2023-03-06T13:51:45.220Z,14.10
2023-03-06T13:54:48.549Z,10.70
2023-03-06T13:57:57.835Z,9.50
2023-03-06T14:01:14.243Z,10.20
2023-03-06T14:04:27.308Z,7.40
2023-03-06T14:07:29.778Z,10.10
2023-03-06T14:10:34.010Z,12.90
2023-03-06T14:13:35.171Z,10.60
2023-03-06T14:16:51.306Z,10.40
2023-03-06T14:19:44.696Z,8.50
2023-03-06T14:22:38.840Z,6.10
2023-03-06T14:25:32.803Z,6.10
2023-03-06T14:28:24.669Z,4.20
2023-03-06T14:31:18.410Z,6.40
2023-03-06T14:34:11.444Z,7.10
2023-03-06T14:37:02.987Z,7.90
2023-03-06T14:39:53.043Z,4.90
2023-03-06T14:42:43.084Z,2.90
2023-03-06T14:45:31.967Z,1.20
2023-03-06T14:48:20.602Z,2.90
2023-03-06T14:51:17.637Z,4.50
2023-03-06T14:54:06.470Z,4.00
2023-03-06T14:57:01.557Z,3.90
2023-03-06T14:59:56.342Z,5.60
2023-03-06T15:02:46.224Z,5.20
2023-03-06T15:05:35.638Z,7.30
2023-03-06T15:08:28.924Z,7.70
2023-03-06T15:11:17.697Z,7.40
2023-03-06T15:14:07.907Z,8.00
2023-03-06T15:16:58.380Z,6.50
2023-03-06T15:20:00.321Z,7.40
2023-03-06T15:22:52.838Z,7.80
2023-03-06T15:25:42.044Z,5.10
2023-03-06T15:28:37.118Z,4.80
2023-03-06T15:31:28.164Z,7.00
2023-03-06T15:34:23.703Z,6.60
2023-03-06T15:37:28.839Z,8.20
2023-03-06T15:40:19.946Z,7.90
2023-03-06T15:51:48.155Z,10.90
2023-03-06T15:54:38.286Z,9.80
2023-03-06T15:57:31.096Z,9.80
2023-03-06T16:00:33.248Z,10.40
2023-03-06T16:03:22.087Z,9.80
2023-03-06T16:06:16.878Z,13.60
2023-03-06T16:09:07.056Z,13.40
2023-03-06T16:11:55.930Z,12.00
2023-03-06T16:15:10.720Z,10.10
2023-03-06T16:18:05.786Z,9.20
2023-03-06T16:20:54.597Z,8.20
2023-03-06T16:23:43.360Z,8.50
2023-03-06T16:26:36.199Z,9.30
2023-03-06T16:29:29.118Z,8.60
2023-03-06T16:32:17.925Z,9.30
2023-03-06T16:35:07.424Z,11.70
2023-03-06T16:37:56.058Z,12.00
2023-03-06T16:40:44.676Z,15.00
2023-03-06T16:43:34.750Z,16.90
2023-03-06T16:46:25.341Z,19.40
2023-03-06T16:49:18.078Z,20.80
2023-03-06T16:52:08.540Z,22.30
2023-03-06T16:54:57.291Z,22.00
2023-03-06T16:57:45.882Z,21.80
2023-03-06T17:00:36.137Z,23.30
2023-03-06T17:03:25.293Z,23.90
2023-03-06T17:06:18.031Z,24.10
2023-03-06T17:09:06.807Z,24.60
2023-03-06T17:11:55.461Z,25.00
2023-03-06T17:14:44.114Z,25.40
2023-03-06T17:17:34.739Z,27.40
2023-03-06T17:20:23.917Z,27.70
2023-03-06T17:23:13.101Z,27.70
2023-03-06T17:26:14.005Z,27.70
2023-03-06T17:29:12.938Z,28.50
2023-03-06T17:32:21.809Z,29.80
2023-03-06T17:35:12.024Z,29.70
2023-03-06T17:38:00.654Z,29.00
2023-03-06T17:40:49.259Z,29.70
2023-03-06T17:43:39.147Z,30.00
2023-03-06T17:46:27.886Z,30.70
2023-03-06T17:49:16.585Z,31.60
2023-03-06T17:52:07.079Z,31.00
2023-03-06T17:54:55.877Z,31.70
2023-03-06T17:57:44.415Z,31.90
2023-03-06T18:00:33.092Z,33.80
2023-03-06T18:03:21.782Z,33.70
2023-03-06T18:06:10.603Z,33.90
2023-03-06T18:09:00.899Z,33.60
2023-03-06T18:11:49.609Z,32.30
2023-03-06T18:14:38.308Z,32.00
2023-03-06T18:17:27.038Z,31.50
2023-03-06T18:20:16.285Z,31.00
2023-03-06T18:23:04.900Z,31.00
2023-03-06T18:26:06.634Z,30.80
2023-03-06T18:28:57.947Z,30.90
2023-03-06T18:31:50.067Z,31.60
2023-03-06T18:34:38.923Z,31.00
2023-03-06T18:37:27.744Z,29.70
2023-03-06T18:40:16.654Z,29.20
2023-03-06T18:43:06.694Z,30.50
2023-03-06T18:45:56.488Z,30.90
2023-03-06T18:48:45.201Z,31.90
2023-03-06T18:51:34.605Z,31.10
2023-03-06T18:54:24.469Z,30.90
2023-03-06T18:57:13.048Z,32.60
2023-03-06T19:00:03.341Z,33.70
2023-03-06T19:02:52.133Z,34.60
2023-03-06T19:05:41.332Z,36.30
2023-03-06T19:08:29.899Z,36.60
2023-03-06T19:11:19.319Z,38.90
2023-03-06T19:14:08.683Z,38.70
2023-03-06T19:16:58.761Z,39.40
2023-03-06T19:19:50.952Z,41.20
2023-03-06T19:22:39.557Z,41.70
2023-03-06T19:25:28.208Z,41.60
2023-03-06T19:28:16.843Z,42.30
2023-03-06T19:31:16.008Z,43.70
2023-03-06T19:34:06.048Z,44.30
2023-03-06T19:36:54.714Z,45.40
2023-03-06T19:39:44.927Z,46.20
2023-03-06T19:42:34.042Z,46.50
2023-03-06T19:45:22.688Z,46.70
2023-03-06T19:48:12.488Z,46.70
2023-03-06T19:51:06.368Z,46.70
2023-03-06T19:53:55.381Z,47.50
2023-03-06T19:56:52.046Z,47.10
2023-03-06T19:59:40.801Z,47.80
2023-03-06T20:02:29.687Z,48.30
2023-03-06T20:05:27.118Z,48.40
2023-03-06T20:08:17.837Z,49.00
2023-03-06T20:11:06.918Z,48.90
2023-03-06T20:13:57.510Z,49.20
2023-03-06T20:16:46.500Z,49.10
2023-03-06T20:19:36.508Z,49.70
2023-03-06T20:22:25.162Z,49.60
2023-03-06T20:25:15.215Z,50.40
2023-03-06T20:28:04.161Z,51.00
2023-03-06T20:30:52.792Z,51.30
2023-03-06T20:33:41.653Z,52.10
2023-03-06T20:36:32.156Z,52.00
2023-03-06T20:39:22.448Z,52.60
2023-03-06T20:42:12.554Z,55.00
2023-03-06T20:45:01.188Z,56.10
2023-03-06T20:47:49.816Z,57.00
2023-03-06T20:50:38.437Z,57.00
2023-03-06T20:53:27.279Z,57.50
2023-03-06T20:56:17.738Z,57.80
2023-03-06T20:59:08.782Z,58.10
2023-03-06T21:01:57.371Z,58.60
2023-03-06T21:04:46.457Z,59.20
2023-03-06T21:08:20.634Z,59.70
2023-03-06T21:11:09.301Z,60.50
2023-03-06T21:13:58.176Z,61.60
2023-03-06T21:16:48.307Z,62.60
2023-03-06T21:19:38.009Z,62.70
2023-03-06T21:22:26.721Z,62.10
2023-03-06T21:25:15.647Z,61.40
2023-03-06T21:28:04.419Z,61.10
2023-03-06T21:30:53.077Z,60.50
2023-03-06T21:33:43.707Z,60.80
2023-03-06T21:36:32.921Z,61.60
2023-03-06T21:39:21.566Z,62.20
2023-03-06T21:42:10.300Z,61.70
2023-03-06T21:44:59.909Z,62.50
2023-03-06T21:47:49.506Z,62.80
2023-03-06T21:50:39.504Z,62.70
2023-03-06T21:53:28.082Z,62.40
2023-03-06T21:56:18.650Z,62.00
2023-03-06T21:59:07.262Z,62.20
2023-03-06T22:01:55.921Z,62.40
2023-03-06T22:04:45.057Z,62.20
2023-03-06T22:07:36.597Z,61.70
2023-03-06T22:10:25.239Z,61.40
2023-03-06T22:13:13.853Z,61.00
2023-03-06T22:16:02.470Z,60.40
2023-03-06T22:18:52.762Z,61.20
2023-03-06T22:21:41.393Z,61.10
2023-03-06T22:24:32.511Z,59.90
2023-03-06T22:27:21.155Z,59.10
2023-03-06T22:30:11.020Z,58.80
2023-03-06T22:32:59.713Z,58.60
2023-03-06T22:35:48.360Z,58.00
2023-03-06T22:38:38.954Z,59.20
2023-03-06T22:41:29.458Z,60.00
2023-03-06T22:44:20.271Z,60.80
2023-03-06T22:47:08.917Z,60.30
2023-03-06T22:49:57.683Z,60.90
2023-03-06T22:52:46.428Z,61.40
2023-03-06T22:55:36.373Z,61.20
2023-03-06T22:58:26.684Z,59.80
2023-03-06T23:01:17.339Z,59.60
2023-03-06T23:04:11.048Z,60.50
2023-03-06T23:06:59.902Z,61.60
2023-03-06T23:09:48.725Z,62.40
2023-03-06T23:12:37.394Z,63.30
2023-03-06T23:15:27.457Z,64.90
2023-03-06T23:18:16.136Z,64.00
2023-03-06T23:21:07.860Z,64.70
2023-03-06T23:23:56.509Z,66.10
2023-03-06T23:26:45.131Z,66.30
2023-03-06T23:29:33.797Z,66.50
2023-03-06T23:32:23.924Z,67.10
2023-03-06T23:35:12.547Z,67.40
2023-03-06T23:38:02.492Z,68.00
2023-03-06T23:40:51.138Z,68.50
2023-03-06T23:43:40.035Z,69.20
2023-03-06T23:46:28.757Z,70.80
2023-03-06T23:49:21.046Z,72.20
2023-03-06T23:52:10.714Z,72.70
2023-03-06T23:54:59.430Z,73.60
2023-03-06T23:57:48.073Z,73.20
